createdAt,value
2023-01-20T00:00:06.436Z,16.90
2023-01-20T00:02:32.694Z,16.16
2023-01-20T00:04:58.968Z,15.59
2023-01-20T00:07:25.227Z,14.97
2023-01-20T00:09:51.504Z,15.31
2023-01-20T00:12:17.753Z,15.31
2023-01-20T00:14:44.039Z,15.66
2023-01-20T00:17:10.329Z,14.15
2023-01-20T00:19:36.797Z,14.37
2023-01-20T00:22:03.097Z,14.99
2023-01-20T00:24:29.351Z,14.53
2023-01-20T00:26:55.616Z,15.02
2023-01-20T00:29:21.871Z,14.39
2023-01-20T00:31:48.140Z,14.88
2023-01-20T00:34:14.398Z,15.17
2023-01-20T00:36:40.673Z,14.62
2023-01-20T00:39:06.950Z,15.07
2023-01-20T00:41:33.218Z,15.92
2023-01-20T00:43:59.478Z,16.17
2023-01-20T00:46:25.808Z,16.50
2023-01-20T00:48:52.091Z,15.98
2023-01-20T00:51:18.357Z,15.77
2023-01-20T00:53:44.612Z,16.42
2023-01-20T00:56:10.889Z,17.14
2023-01-20T00:58:37.156Z,17.60
2023-01-20T01:01:03.543Z,18.53
2023-01-20T01:03:29.929Z,17.74
2023-01-20T01:05:56.198Z,19.38
2023-01-20T01:08:22.459Z,19.23
2023-01-20T01:10:48.726Z,18.49
2023-01-20T01:13:14.978Z,18.51
2023-01-20T01:15:41.292Z,17.88
2023-01-20T01:18:07.571Z,19.03
2023-01-20T01:20:33.828Z,19.09
2023-01-20T01:23:00.124Z,19.71
2023-01-20T01:25:26.400Z,19.47
2023-01-20T01:27:52.651Z,19.31
2023-01-20T01:30:18.954Z,20.11
2023-01-20T01:32:45.265Z,20.22
2023-01-20T01:35:12.030Z,21.11
2023-01-20T01:37:38.519Z,20.91
2023-01-20T01:40:04.783Z,21.47
2023-01-20T01:42:31.056Z,21.89
2023-01-20T01:44:57.312Z,22.56
2023-01-20T01:47:23.590Z,21.70
2023-01-20T01:49:49.865Z,20.52
2023-01-20T01:52:16.164Z,20.81
2023-01-20T01:54:42.413Z,20.60
2023-01-20T01:57:08.692Z,21.39
2023-01-20T01:59:34.995Z,19.86
2023-01-20T02:02:01.371Z,20.67
2023-01-20T02:04:27.688Z,20.05
2023-01-20T02:06:53.967Z,21.11
2023-01-20T02:09:20.215Z,21.10
2023-01-20T02:11:46.484Z,22.63
2023-01-20T02:14:12.760Z,21.18
2023-01-20T02:16:39.034Z,21.52
2023-01-20T02:19:05.344Z,22.33
2023-01-20T02:21:31.624Z,22.05
2023-01-20T02:23:57.923Z,22.98
2023-01-20T02:26:24.193Z,23.86
2023-01-20T02:28:50.619Z,24.43
2023-01-20T02:31:16.899Z,24.82
2023-01-20T02:33:43.171Z,25.59
2023-01-20T02:36:09.466Z,24.95
2023-01-20T02:38:35.738Z,26.32
2023-01-20T02:41:01.994Z,26.39
2023-01-20T02:43:28.263Z,26.06
2023-01-20T02:45:54.622Z,26.40
2023-01-20T02:48:20.942Z,25.93
2023-01-20T02:50:47.318Z,26.55
2023-01-20T02:53:13.577Z,26.39
2023-01-20T02:55:39.822Z,25.80
2023-01-20T02:58:06.091Z,26.33
2023-01-20T03:00:32.347Z,26.00
2023-01-20T03:02:58.615Z,25.13
2023-01-20T03:05:25.106Z,25.26
2023-01-20T03:07:51.371Z,26.06
2023-01-20T03:10:17.620Z,25.66
2023-01-20T03:12:43.899Z,25.33
2023-01-20T03:15:10.169Z,24.77
2023-01-20T03:17:36.422Z,24.98
2023-01-20T03:20:02.672Z,24.46
2023-01-20T03:22:28.966Z,23.37
2023-01-20T03:24:55.245Z,25.38
2023-01-20T03:27:21.508Z,24.23
2023-01-20T03:29:47.791Z,24.10
2023-01-20T03:32:14.067Z,23.47
2023-01-20T03:34:40.320Z,23.81
2023-01-20T03:37:06.593Z,23.57
2023-01-20T03:39:32.885Z,23.60
2023-01-20T03:41:59.138Z,24.17
2023-01-20T03:44:25.396Z,25.67
2023-01-20T03:46:51.673Z,25.93
2023-01-20T03:49:17.971Z,23.49
2023-01-20T03:51:44.222Z,22.70
2023-01-20T03:54:10.495Z,24.49
2023-01-20T03:56:36.743Z,23.84
2023-01-20T03:59:03.032Z,23.48
2023-01-20T04:01:29.423Z,22.49
2023-01-20T04:03:55.715Z,24.43
2023-01-20T04:06:21.972Z,25.00
2023-01-20T04:08:48.253Z,25.74
2023-01-20T04:11:14.535Z,27.16
2023-01-20T04:13:40.807Z,27.51
2023-01-20T04:16:07.101Z,27.86
2023-01-20T04:18:33.381Z,31.74
2023-01-20T04:20:59.629Z,30.80
2023-01-20T04:23:25.893Z,27.56
2023-01-20T04:25:52.145Z,28.40
2023-01-20T04:28:18.420Z,27.21
2023-01-20T04:30:44.750Z,27.46
2023-01-20T04:33:11.127Z,26.83
2023-01-20T04:35:37.520Z,27.33
2023-01-20T04:38:03.792Z,27.80
2023-01-20T04:40:30.042Z,28.26
2023-01-20T04:42:56.296Z,27.89
2023-01-20T04:45:22.569Z,28.00
2023-01-20T04:47:48.823Z,28.01
2023-01-20T04:50:15.101Z,27.38
2023-01-20T04:52:41.376Z,27.61
2023-01-20T04:55:07.628Z,27.34
2023-01-20T04:57:33.889Z,27.89
2023-01-20T05:00:00.183Z,27.30
2023-01-20T05:02:26.582Z,27.22
2023-01-20T05:04:52.892Z,27.40
2023-01-20T05:07:19.153Z,28.26
2023-01-20T05:09:45.419Z,27.97
2023-01-20T05:12:11.691Z,28.77
2023-01-20T05:14:37.963Z,27.51
2023-01-20T05:17:04.236Z,27.27
2023-01-20T05:19:30.502Z,28.18
2023-01-20T05:21:56.752Z,26.91
2023-01-20T05:24:23.003Z,28.02
2023-01-20T05:26:49.304Z,29.40
2023-01-20T05:29:15.565Z,30.61
2023-01-20T05:31:41.909Z,29.54
2023-01-20T05:34:08.250Z,27.39
2023-01-20T05:36:34.510Z,28.93
2023-01-20T05:39:00.779Z,30.18
2023-01-20T05:41:27.044Z,28.72
2023-01-20T05:43:53.306Z,29.01
2023-01-20T05:46:19.608Z,28.25
2023-01-20T05:48:45.899Z,25.15
2023-01-20T05:51:12.167Z,25.93
2023-01-20T05:53:38.441Z,27.77
2023-01-20T05:56:04.850Z,27.94
2023-01-20T05:58:31.126Z,26.78
2023-01-20T06:00:57.379Z,29.41
2023-01-20T06:03:23.650Z,29.67
2023-01-20T06:05:50.012Z,26.67
2023-01-20T06:08:16.266Z,28.67
2023-01-20T06:10:42.539Z,28.69
2023-01-20T06:13:08.822Z,29.46
2023-01-20T06:15:35.171Z,26.82
2023-01-20T06:18:01.422Z,27.77
2023-01-20T06:20:27.680Z,28.55
2023-01-20T06:22:53.966Z,28.86
2023-01-20T06:25:20.223Z,28.37
2023-01-20T06:27:46.546Z,26.26
2023-01-20T06:30:12.822Z,27.67
2023-01-20T06:32:39.105Z,27.04
2023-01-20T06:35:05.360Z,28.42
2023-01-20T06:37:31.612Z,26.94
2023-01-20T06:39:57.872Z,26.41
2023-01-20T06:42:24.136Z,26.59
2023-01-20T06:44:50.406Z,25.88
2023-01-20T06:47:16.672Z,26.31
2023-01-20T06:49:42.932Z,26.14
2023-01-20T06:52:09.204Z,25.56
2023-01-20T06:54:35.485Z,24.64
2023-01-20T06:57:01.749Z,23.06
2023-01-20T06:59:28.003Z,28.54
2023-01-20T07:01:54.371Z,26.41
2023-01-20T07:04:20.743Z,23.76
2023-01-20T07:06:47.157Z,23.19
2023-01-20T07:09:13.423Z,23.86
2023-01-20T07:11:39.684Z,22.38
2023-01-20T07:14:05.958Z,22.61
2023-01-20T07:16:32.243Z,23.49
2023-01-20T07:18:58.534Z,21.99
2023-01-20T07:21:26.567Z,22.27
2023-01-20T07:23:53.016Z,25.00
2023-01-20T07:26:19.288Z,28.23
2023-01-20T07:28:45.559Z,23.97
2023-01-20T07:31:11.846Z,22.84
2023-01-20T07:33:38.132Z,23.26
2023-01-20T07:36:04.401Z,23.77
2023-01-20T07:38:30.669Z,23.60
2023-01-20T07:40:56.959Z,22.83
2023-01-20T07:43:23.234Z,22.59
2023-01-20T07:45:49.548Z,21.34
2023-01-20T07:48:15.843Z,20.85
2023-01-20T07:50:42.135Z,22.00
2023-01-20T07:53:08.512Z,22.47
2023-01-20T07:55:34.777Z,20.86
2023-01-20T07:58:01.030Z,21.14
2023-01-20T08:00:27.281Z,22.16
2023-01-20T08:02:53.555Z,20.30
2023-01-20T08:05:19.811Z,19.74
2023-01-20T08:07:46.083Z,21.17
2023-01-20T08:10:12.357Z,20.00
2023-01-20T08:12:38.609Z,21.74
2023-01-20T08:15:04.891Z,23.56
2023-01-20T08:17:31.207Z,23.31
2023-01-20T08:19:57.505Z,24.16
2023-01-20T08:22:23.781Z,23.89
2023-01-20T08:24:50.061Z,23.78
2023-01-20T08:27:16.323Z,23.33
2023-01-20T08:29:42.576Z,21.86
2023-01-20T08:32:08.845Z,22.17
2023-01-20T08:34:35.126Z,22.17
2023-01-20T08:37:01.404Z,21.93
2023-01-20T08:39:27.662Z,22.67
2023-01-20T08:41:53.935Z,22.61
2023-01-20T08:44:20.216Z,22.14
2023-01-20T08:46:46.488Z,22.20
2023-01-20T08:49:12.755Z,22.81
2023-01-20T08:51:39.037Z,22.31
2023-01-20T08:54:05.366Z,22.23
2023-01-20T08:56:31.644Z,22.35
2023-01-20T08:58:57.926Z,21.99
2023-01-20T09:01:24.224Z,22.29
2023-01-20T09:04:04.354Z,20.49
2023-01-20T09:06:31.483Z,20.68
2023-01-20T09:08:57.771Z,21.92
2023-01-20T09:11:24.050Z,22.13
2023-01-20T09:13:50.321Z,21.80
2023-01-20T09:16:16.731Z,22.14
2023-01-20T09:18:43.038Z,21.36
2023-01-20T09:21:09.286Z,22.23
2023-01-20T09:23:35.551Z,21.18
2023-01-20T09:26:01.812Z,22.34
2023-01-20T09:28:29.652Z,23.12
2023-01-20T09:30:56.647Z,22.50
2023-01-20T09:33:22.960Z,23.08
2023-01-20T09:35:49.221Z,22.12
2023-01-20T09:38:15.500Z,22.54
2023-01-20T09:40:41.782Z,21.66
2023-01-20T09:43:08.057Z,22.15
2023-01-20T09:45:34.333Z,21.13
2023-01-20T09:48:00.639Z,22.02
2023-01-20T09:50:26.911Z,23.54
2023-01-20T09:52:53.186Z,22.61
2023-01-20T09:55:19.467Z,20.95
2023-01-20T09:57:45.726Z,20.28
2023-01-20T10:00:12.019Z,22.14
2023-01-20T10:02:38.317Z,21.10
2023-01-20T10:05:04.613Z,21.91
2023-01-20T10:07:30.887Z,21.90
2023-01-20T10:09:57.136Z,22.35
2023-01-20T10:12:23.411Z,20.95
2023-01-20T10:14:49.672Z,22.16
2023-01-20T10:17:15.937Z,20.61
2023-01-20T10:19:42.191Z,20.01
2023-01-20T10:22:08.483Z,20.68
2023-01-20T10:24:34.769Z,20.88
2023-01-20T10:27:01.052Z,21.29
2023-01-20T10:29:27.309Z,21.19
2023-01-20T10:31:53.667Z,21.79
2023-01-20T10:34:19.943Z,21.03
2023-01-20T10:36:46.200Z,21.09
2023-01-20T10:39:12.495Z,21.18
2023-01-20T10:41:38.772Z,20.43
2023-01-20T10:44:05.039Z,21.03
2023-01-20T10:46:31.465Z,21.53
2023-01-20T10:48:57.747Z,21.49
2023-01-20T10:51:24.036Z,21.38
2023-01-20T10:53:50.304Z,22.19
2023-01-20T10:56:16.563Z,22.43
2023-01-20T10:58:42.828Z,23.73
2023-01-20T11:01:09.086Z,22.60
2023-01-20T11:03:35.335Z,22.79
2023-01-20T11:06:01.680Z,23.61
2023-01-20T11:08:27.953Z,24.24
2023-01-20T11:10:54.202Z,21.01
2023-01-20T11:13:20.464Z,20.80
2023-01-20T11:15:46.749Z,20.84
2023-01-20T11:18:13.055Z,20.82
2023-01-20T11:20:39.316Z,22.02
2023-01-20T11:23:05.584Z,21.85
2023-01-20T11:25:31.860Z,21.36
2023-01-20T11:27:58.131Z,20.37
2023-01-20T11:30:24.385Z,20.97
2023-01-20T11:32:50.643Z,20.91
2023-01-20T11:35:17.109Z,21.43
2023-01-20T11:37:43.420Z,20.83
2023-01-20T11:40:09.671Z,21.36
2023-01-20T11:42:36.805Z,20.75
2023-01-20T11:45:20.240Z,21.00
2023-01-20T11:47:47.326Z,21.09
2023-01-20T11:50:14.093Z,20.69
2023-01-20T11:52:40.677Z,20.44
2023-01-20T11:55:06.965Z,20.00
2023-01-20T11:57:33.213Z,19.72
2023-01-20T11:59:59.480Z,19.65
2023-01-20T12:02:25.750Z,19.56
2023-01-20T12:04:52.027Z,20.46
2023-01-20T12:07:18.283Z,20.51
2023-01-20T12:09:44.563Z,19.84
2023-01-20T12:12:10.833Z,20.36
2023-01-20T12:14:37.094Z,19.53
2023-01-20T12:17:03.366Z,20.62
2023-01-20T12:19:29.622Z,20.05
2023-01-20T12:21:55.872Z,20.74
2023-01-20T12:24:22.340Z,19.45
2023-01-20T12:26:48.719Z,19.37
2023-01-20T12:29:14.982Z,19.65
2023-01-20T12:31:41.278Z,19.34
2023-01-20T12:34:07.557Z,19.40
2023-01-20T12:36:33.830Z,19.82
2023-01-20T12:39:01.147Z,19.57
2023-01-20T12:41:27.393Z,17.94
2023-01-20T12:43:53.659Z,19.14
2023-01-20T12:46:19.920Z,18.23
2023-01-20T12:48:46.167Z,20.47
2023-01-20T12:51:12.437Z,19.59
2023-01-20T12:53:38.762Z,18.28
2023-01-20T12:56:05.152Z,18.29
2023-01-20T12:58:31.418Z,18.70
2023-01-20T13:00:57.723Z,18.32
2023-01-20T13:03:24.011Z,18.41
2023-01-20T13:05:50.262Z,18.28
2023-01-20T13:08:16.521Z,18.21
2023-01-20T13:10:42.794Z,18.96
2023-01-20T13:13:09.064Z,18.61
2023-01-20T13:15:35.351Z,18.27
2023-01-20T13:18:01.615Z,17.76
2023-01-20T13:20:27.888Z,18.01
2023-01-20T13:22:54.268Z,19.41
2023-01-20T13:25:20.555Z,18.85
2023-01-20T13:27:46.814Z,18.47
2023-01-20T13:30:13.179Z,18.35
2023-01-20T13:32:39.545Z,18.18
2023-01-20T13:35:05.825Z,18.12
2023-01-20T13:37:32.114Z,19.13
2023-01-20T13:39:58.490Z,18.97
2023-01-20T13:42:24.749Z,18.71
2023-01-20T13:44:51.007Z,21.79
2023-01-20T13:47:17.265Z,20.44
2023-01-20T13:49:43.559Z,18.77
2023-01-20T13:52:09.902Z,19.23
2023-01-20T13:54:36.183Z,19.54
2023-01-20T13:57:02.441Z,23.28
2023-01-20T13:59:28.711Z,21.52
2023-01-20T14:01:54.973Z,22.38
2023-01-20T14:04:21.239Z,24.06
2023-01-20T14:06:47.554Z,21.73
2023-01-20T14:09:13.875Z,20.49
2023-01-20T14:11:40.155Z,18.96
2023-01-20T14:14:06.429Z,17.46
2023-01-20T14:16:32.769Z,17.12
2023-01-20T14:18:59.053Z,17.24
2023-01-20T14:21:25.307Z,16.90
2023-01-20T14:23:51.578Z,16.91
2023-01-20T14:26:17.840Z,17.44
2023-01-20T14:28:44.098Z,18.40
2023-01-20T14:31:10.456Z,19.91
2023-01-20T14:33:36.770Z,19.42
2023-01-20T14:36:03.019Z,19.25
2023-01-20T14:38:29.279Z,19.00
2023-01-20T14:40:55.563Z,19.19
2023-01-20T14:43:21.850Z,20.63
2023-01-20T14:45:48.144Z,18.87
2023-01-20T14:48:28.312Z,19.56
2023-01-20T14:50:59.134Z,19.60
2023-01-20T14:53:25.414Z,19.76
2023-01-20T14:55:51.665Z,18.49
2023-01-20T14:58:17.942Z,19.57
2023-01-20T15:00:44.208Z,18.19
2023-01-20T15:03:11.837Z,17.95
2023-01-20T15:05:38.363Z,18.61
2023-01-20T15:08:04.632Z,17.59
2023-01-20T15:10:30.899Z,18.79
2023-01-20T15:12:57.161Z,19.82
2023-01-20T15:15:23.435Z,20.43
2023-01-20T15:17:49.701Z,20.62
2023-01-20T15:20:16.187Z,22.32
2023-01-20T15:22:42.648Z,19.48
2023-01-20T15:25:08.903Z,19.41
2023-01-20T15:27:35.170Z,17.91
2023-01-20T15:30:01.451Z,19.54
2023-01-20T15:32:27.711Z,17.95
2023-01-20T15:34:53.961Z,18.52
2023-01-20T15:37:20.234Z,18.56
2023-01-20T15:39:46.511Z,57.71
2023-01-20T15:42:12.771Z,34.07
2023-01-20T15:44:39.042Z,23.23
2023-01-20T15:47:05.299Z,21.00
2023-01-20T15:49:31.562Z,20.49
2023-01-20T15:51:57.827Z,21.69
2023-01-20T15:54:24.086Z,21.39
2023-01-20T15:56:50.357Z,20.07
2023-01-20T15:59:16.670Z,20.90
2023-01-20T16:01:42.961Z,21.08
2023-01-20T16:04:09.217Z,21.35
2023-01-20T16:06:35.489Z,20.35
2023-01-20T16:09:01.746Z,23.15
2023-01-20T16:11:28.003Z,21.38
2023-01-20T16:13:54.290Z,22.81
2023-01-20T16:16:20.632Z,19.36
2023-01-20T16:18:46.934Z,22.83
2023-01-20T16:21:13.192Z,21.23
2023-01-20T16:23:39.440Z,22.66
2023-01-20T16:26:05.686Z,29.36
2023-01-20T16:28:31.964Z,33.46
2023-01-20T16:30:58.226Z,32.08
2023-01-20T16:33:24.878Z,28.22
2023-01-20T16:35:51.207Z,26.29
2023-01-20T16:38:17.460Z,29.91
2023-01-20T16:40:43.741Z,43.93
2023-01-20T16:43:11.879Z,38.54
2023-01-20T16:45:38.948Z,29.99
2023-01-20T16:48:05.245Z,29.29
2023-01-20T16:50:31.591Z,19.23
2023-01-20T16:52:57.852Z,19.16
2023-01-20T16:55:24.137Z,20.54
2023-01-20T16:57:50.419Z,22.88
2023-01-20T17:00:18.846Z,21.79
2023-01-20T17:02:45.467Z,19.91
2023-01-20T17:05:11.708Z,20.33
2023-01-20T17:07:38.035Z,19.43
2023-01-20T17:10:04.296Z,17.96
2023-01-20T17:12:30.559Z,17.69
2023-01-20T17:14:56.818Z,19.71
2023-01-20T17:17:23.081Z,21.34
2023-01-20T17:19:49.350Z,41.50
2023-01-20T17:22:15.609Z,28.55
2023-01-20T17:24:41.861Z,38.16
2023-01-20T17:27:08.125Z,27.67
2023-01-20T17:29:34.390Z,33.33
2023-01-20T17:32:00.703Z,30.08
2023-01-20T17:34:26.992Z,21.34
2023-01-20T17:36:53.263Z,18.90
2023-01-20T17:39:19.537Z,25.06
2023-01-20T17:41:45.899Z,27.72
2023-01-20T17:44:12.171Z,31.97
2023-01-20T17:46:38.425Z,25.19
2023-01-20T17:49:04.716Z,18.30
2023-01-20T17:51:30.988Z,16.39
2023-01-20T17:53:57.260Z,18.06
2023-01-20T17:56:23.519Z,17.39
2023-01-20T17:58:49.791Z,21.18
2023-01-20T18:01:16.217Z,51.23
2023-01-20T18:03:43.206Z,29.62
2023-01-20T18:06:09.628Z,26.17
2023-01-20T18:08:35.888Z,27.85
2023-01-20T18:11:02.157Z,29.09
2023-01-20T18:13:28.550Z,32.00
2023-01-20T18:15:54.876Z,34.95
2023-01-20T18:18:21.176Z,35.55
2023-01-20T18:20:47.456Z,28.21
2023-01-20T18:23:13.719Z,23.92
2023-01-20T18:25:39.969Z,21.88
2023-01-20T18:28:06.225Z,33.11
2023-01-20T18:30:32.582Z,33.77
2023-01-20T18:32:58.889Z,30.43
2023-01-20T18:35:25.162Z,26.52
2023-01-20T18:37:51.442Z,31.94
2023-01-20T18:40:18.186Z,51.34
2023-01-20T18:42:44.652Z,32.90
2023-01-20T18:45:10.928Z,22.72
2023-01-20T18:47:37.180Z,33.15
2023-01-20T18:50:03.452Z,31.52
2023-01-20T18:52:29.723Z,103.55
2023-01-20T18:54:56.100Z,76.21
2023-01-20T18:57:22.368Z,40.45
2023-01-20T18:59:48.660Z,26.99
2023-01-20T19:02:14.944Z,37.89
2023-01-20T19:04:41.225Z,52.65
2023-01-20T19:07:07.495Z,37.75
2023-01-20T19:09:33.756Z,22.97
2023-01-20T19:12:00.007Z,20.95
2023-01-20T19:14:26.259Z,31.84
2023-01-20T19:16:52.527Z,28.29
2023-01-20T19:19:18.825Z,17.16
2023-01-20T19:21:45.109Z,19.03
2023-01-20T19:24:11.374Z,19.38
2023-01-20T19:26:37.650Z,19.68
2023-01-20T19:29:03.909Z,20.08
2023-01-20T19:31:30.258Z,19.40
2023-01-20T19:33:56.545Z,18.73
2023-01-20T19:36:22.807Z,18.67
2023-01-20T19:38:49.069Z,19.91
2023-01-20T19:41:15.355Z,19.48
2023-01-20T19:43:41.627Z,20.38
2023-01-20T19:46:07.926Z,20.03
2023-01-20T19:48:34.211Z,21.48
2023-01-20T19:51:00.486Z,20.37
2023-01-20T19:53:26.787Z,20.74
2023-01-20T19:55:53.066Z,20.39
2023-01-20T19:58:19.311Z,22.36
2023-01-20T20:00:45.575Z,22.21
2023-01-20T20:03:11.843Z,22.75
2023-01-20T20:05:38.105Z,23.88
2023-01-20T20:08:04.379Z,23.56
2023-01-20T20:10:30.631Z,25.54
2023-01-20T20:12:56.884Z,25.23
2023-01-20T20:15:23.137Z,23.56
2023-01-20T20:17:49.400Z,21.97
2023-01-20T20:20:16.027Z,22.33
2023-01-20T20:22:42.442Z,20.87
2023-01-20T20:25:11.283Z,22.66
2023-01-20T20:27:37.668Z,22.87
2023-01-20T20:30:03.943Z,22.93
2023-01-20T20:32:30.284Z,23.28
2023-01-20T20:34:56.551Z,25.20
2023-01-20T20:37:22.829Z,25.68
2023-01-20T20:39:49.100Z,26.55
2023-01-20T20:42:15.349Z,25.39
2023-01-20T20:44:41.594Z,24.47
2023-01-20T20:47:07.958Z,25.52
2023-01-20T20:49:34.231Z,23.99
2023-01-20T20:52:00.543Z,23.43
2023-01-20T20:54:26.791Z,23.10
2023-01-20T20:56:53.063Z,24.52
2023-01-20T20:59:19.330Z,23.85
2023-01-20T21:01:45.592Z,24.85
2023-01-20T21:04:11.921Z,25.35
2023-01-20T21:06:38.200Z,27.60
2023-01-20T21:09:04.478Z,27.47
2023-01-20T21:11:30.781Z,26.75
2023-01-20T21:13:57.047Z,25.71
2023-01-20T21:16:23.795Z,24.82
2023-01-20T21:18:50.290Z,23.98
2023-01-20T21:21:16.549Z,25.34
2023-01-20T21:23:42.835Z,25.54
2023-01-20T21:26:09.108Z,23.05
2023-01-20T21:28:35.368Z,24.47
2023-01-20T21:31:01.672Z,22.66
2023-01-20T21:33:27.943Z,22.67
2023-01-20T21:35:54.190Z,23.54
2023-01-20T21:38:20.450Z,23.61
2023-01-20T21:40:46.715Z,23.25
2023-01-20T21:43:12.974Z,23.53
2023-01-20T21:45:39.248Z,22.06
2023-01-20T21:48:05.513Z,20.95
2023-01-20T21:50:31.848Z,19.65
2023-01-20T21:52:58.124Z,18.94
2023-01-20T21:55:24.389Z,18.72
2023-01-20T21:57:51.524Z,18.53
2023-01-20T22:00:18.283Z,18.58
2023-01-20T22:02:44.834Z,17.22
2023-01-20T22:05:11.120Z,16.97
2023-01-20T22:07:37.395Z,18.35
2023-01-20T22:10:03.647Z,18.88
2023-01-20T22:12:29.908Z,20.01
2023-01-20T22:14:56.153Z,20.22
2023-01-20T22:17:22.421Z,20.56
2023-01-20T22:19:48.691Z,20.38
2023-01-20T22:22:15.399Z,19.39
2023-01-20T22:24:41.715Z,20.19
2023-01-20T22:27:07.982Z,19.98
2023-01-20T22:29:34.365Z,19.86
2023-01-20T22:32:00.625Z,19.17
2023-01-20T22:34:26.908Z,20.78
2023-01-20T22:36:53.180Z,22.36
2023-01-20T22:39:19.476Z,23.92
2023-01-20T22:41:45.743Z,22.48
2023-01-20T22:44:12.017Z,22.24
2023-01-20T22:46:38.327Z,22.46
2023-01-20T22:49:04.606Z,23.94
2023-01-20T22:51:30.889Z,24.74
2023-01-20T22:53:57.182Z,24.12
2023-01-20T22:56:23.443Z,22.33
2023-01-20T22:58:49.746Z,17.27
2023-01-20T23:01:16.069Z,16.83
2023-01-20T23:03:42.383Z,16.43
2023-01-20T23:06:08.672Z,16.49
2023-01-20T23:08:34.962Z,16.79
2023-01-20T23:11:01.216Z,15.35
2023-01-20T23:13:27.497Z,13.06
2023-01-20T23:15:53.749Z,11.65
2023-01-20T23:18:19.991Z,11.59
2023-01-20T23:20:46.285Z,11.57
2023-01-20T23:23:12.574Z,14.44
2023-01-20T23:25:38.861Z,18.48
2023-01-20T23:28:05.149Z,21.26
2023-01-20T23:30:31.684Z,21.70
2023-01-20T23:32:58.001Z,22.71
2023-01-20T23:35:24.263Z,20.12
2023-01-20T23:37:50.513Z,20.00
2023-01-20T23:40:16.955Z,21.65
2023-01-20T23:42:43.472Z,21.30
2023-01-20T23:45:09.725Z,21.10
2023-01-20T23:47:36.003Z,25.14
2023-01-20T23:50:02.322Z,23.07
2023-01-20T23:52:28.595Z,23.85
2023-01-20T23:54:54.848Z,23.18
2023-01-20T23:57:21.092Z,22.73
2023-01-20T23:59:47.368Z,21.21
